Time;durP1;ratioP1;P1;durP2;ratioP2;P2;SDS_P1;SDS_P2;PMS_P1;PMS_P2;Temp;Humidity;BMP_temperature;BMP_pressure;BME280_temperature;BME280_humidity;BME280_pressure;Samples;Min_cycle;Max_cycle;Signal;HPM_P1;HPM_P2
2023/04/25 00:00:52;;;;;;;0.20;0.00;;;;;;;;;;5027076;28;59114;-63
2023/04/25 00:03:18;;;;;;;0.53;0.37;;;;;;;;;;5024449;28;58687;-63
2023/04/25 00:05:43;;;;;;;0.40;0.20;;;;;;;;;;5025897;28;59559;-62
2023/04/25 00:08:09;;;;;;;0.30;0.30;;;;;;;;;;5024487;28;58646;-58
2023/04/25 00:10:34;;;;;;;2.10;0.93;;;;;;;;;;5027435;28;58777;-63
2023/04/25 00:13:02;;;;;;;0.60;0.20;;;;;;;;;;5027344;28;58665;-63
2023/04/25 00:15:27;;;;;;;0.63;0.63;;;;;;;;;;5026810;28;58739;-63
2023/04/25 00:17:52;;;;;;;0.50;0.30;;;;;;;;;;5026161;28;58609;-63
2023/04/25 00:20:18;;;;;;;0.40;0.40;;;;;;;;;;5029751;28;58427;-63
2023/04/25 00:22:43;;;;;;;0.55;0.40;;;;;;;;;;5025450;28;58700;-63
2023/04/25 00:25:08;;;;;;;0.10;0.10;;;;;;;;;;5027284;28;58870;-62
2023/04/25 00:27:33;;;;;;;0.30;0.30;;;;;;;;;;5024401;28;58664;-62
2023/04/25 00:29:58;;;;;;;0.57;0.37;;;;;;;;;;5026617;28;58386;-61
2023/04/25 00:32:23;;;;;;;0.37;0.37;;;;;;;;;;5026585;28;58458;-62
2023/04/25 00:34:49;;;;;;;0.60;0.30;;;;;;;;;;5025434;28;58708;-63
2023/04/25 00:37:14;;;;;;;0.40;0.40;;;;;;;;;;5028390;28;58454;-63
2023/04/25 00:39:39;;;;;;;0.57;0.57;;;;;;;;;;5027818;28;59055;-63
2023/04/25 00:42:05;;;;;;;0.20;0.20;;;;;;;;;;5026596;28;58076;-62
2023/04/25 00:44:31;;;;;;;0.30;0.22;;;;;;;;;;5026208;28;58780;-60
2023/04/25 00:46:57;;;;;;;1.15;0.40;;;;;;;;;;5027033;28;59977;-60
2023/04/25 00:49:22;;;;;;;0.73;0.30;;;;;;;;;;5026987;28;58710;-63
2023/04/25 00:51:47;;;;;;;0.38;0.38;;;;;;;;;;5025156;28;58744;-62
2023/04/25 00:54:13;;;;;;;1.75;0.25;;;;;;;;;;5025055;28;58959;-63
2023/04/25 00:56:38;;;;;;;0.55;0.25;;;;;;;;;;5026687;28;58273;-62
2023/04/25 00:59:03;;;;;;;0.47;0.30;;;;;;;;;;5026946;28;58263;-62
2023/04/25 01:01:29;;;;;;;0.20;0.20;;;;;;;;;;5024281;28;58836;-62
2023/04/25 01:03:55;;;;;;;0.15;0.10;;;;;;;;;;5025158;28;58562;-61
2023/04/25 01:06:22;;;;;;;0.20;0.20;;;;;;;;;;5025741;28;58816;-63
2023/04/25 01:08:47;;;;;;;0.40;0.40;;;;;;;;;;5025102;28;58845;-63
2023/04/25 01:11:12;;;;;;;0.38;0.38;;;;;;;;;;5024877;28;58617;-62
2023/04/25 01:13:37;;;;;;;0.45;0.30;;;;;;;;;;5026091;28;58324;-61
2023/04/25 01:16:03;;;;;;;2.40;0.60;;;;;;;;;;5024537;28;58384;-63
2023/04/25 01:18:28;;;;;;;0.30;0.30;;;;;;;;;;5024391;28;58942;-63
2023/04/25 01:20:53;;;;;;;0.97;0.30;;;;;;;;;;5027206;28;58806;-61
2023/04/25 01:23:22;;;;;;;1.25;0.60;;;;;;;;;;5026490;28;58450;-63
2023/04/25 01:25:48;;;;;;;1.08;0.45;;;;;;;;;;5026286;28;57858;-62
2023/04/25 01:28:13;;;;;;;2.17;0.95;;;;;;;;;;5020907;28;58645;-62
2023/04/25 01:30:38;;;;;;;0.50;0.50;;;;;;;;;;5025167;28;58753;-61
2023/04/25 01:33:05;;;;;;;0.20;0.20;;;;;;;;;;5024410;28;58698;-63
2023/04/25 01:35:30;;;;;;;0.63;0.43;;;;;;;;;;5022896;28;58401;-63
2023/04/25 01:37:55;;;;;;;0.20;0.20;;;;;;;;;;5025528;28;58067;-61
2023/04/25 01:40:21;;;;;;;0.32;0.32;;;;;;;;;;5024010;28;58355;-63
2023/04/25 01:42:47;;;;;;;0.55;0.32;;;;;;;;;;5026390;28;59650;-63
2023/04/25 01:45:12;;;;;;;0.37;0.33;;;;;;;;;;5023644;28;58841;-62
2023/04/25 01:47:39;;;;;;;0.70;0.30;;;;;;;;;;5024394;28;58524;-63
2023/04/25 01:50:04;;;;;;;0.38;0.32;;;;;;;;;;5025540;28;58739;-63
2023/04/25 01:52:30;;;;;;;0.45;0.43;;;;;;;;;;5023192;28;58655;-63
2023/04/25 01:54:56;;;;;;;0.67;0.60;;;;;;;;;;5026159;28;58418;-61
2023/04/25 01:57:21;;;;;;;0.28;0.28;;;;;;;;;;5023181;28;58749;-62
2023/04/25 01:59:47;;;;;;;1.40;0.30;;;;;;;;;;5024662;28;58611;-63
2023/04/25 02:02:12;;;;;;;1.50;1.07;;;;;;;;;;5026109;28;58407;-62
2023/04/25 02:04:37;;;;;;;0.47;0.30;;;;;;;;;;5024929;28;58479;-63
2023/04/25 02:07:05;;;;;;;0.30;0.22;;;;;;;;;;5024168;28;58358;-63
2023/04/25 02:09:30;;;;;;;0.20;0.20;;;;;;;;;;5025354;28;58441;-63
2023/04/25 02:11:55;;;;;;;0.20;0.20;;;;;;;;;;5025187;28;58811;-62
2023/04/25 02:14:20;;;;;;;0.43;0.32;;;;;;;;;;5027230;28;58547;-63
2023/04/25 02:16:46;;;;;;;0.70;0.30;;;;;;;;;;5027173;28;59044;-63
2023/04/25 02:19:11;;;;;;;0.55;0.55;;;;;;;;;;5025661;28;58476;-63
2023/04/25 02:21:36;;;;;;;0.10;0.10;;;;;;;;;;5027297;28;58126;-63
2023/04/25 02:24:02;;;;;;;0.57;0.20;;;;;;;;;;5027660;28;58530;-63
2023/04/25 02:26:27;;;;;;;0.25;0.25;;;;;;;;;;5026297;28;59936;-63
2023/04/25 02:28:52;;;;;;;0.20;0.20;;;;;;;;;;5027680;28;58822;-63
2023/04/25 02:31:17;;;;;;;0.20;0.20;;;;;;;;;;5029256;28;58356;-62
2023/04/25 02:33:43;;;;;;;1.05;0.32;;;;;;;;;;5030565;28;58715;-62
2023/04/25 02:36:08;;;;;;;0.28;0.13;;;;;;;;;;5028016;28;58388;-62
2023/04/25 02:38:33;;;;;;;0.40;0.40;;;;;;;;;;5028278;28;58770;-62
2023/04/25 02:40:58;;;;;;;0.50;0.50;;;;;;;;;;5028508;28;58378;-63
2023/04/25 02:43:23;;;;;;;0.38;0.30;;;;;;;;;;5027697;28;58460;-62
2023/04/25 02:45:48;;;;;;;0.30;0.20;;;;;;;;;;5028571;28;58510;-62
2023/04/25 02:48:14;;;;;;;0.40;0.30;;;;;;;;;;5026398;28;58068;-63
2023/04/25 02:50:39;;;;;;;0.83;0.60;;;;;;;;;;5026541;28;58458;-62
2023/04/25 02:53:04;;;;;;;1.00;0.57;;;;;;;;;;5027963;28;58550;-62
2023/04/25 02:55:29;;;;;;;0.20;0.20;;;;;;;;;;5029212;28;58650;-62
2023/04/25 02:57:57;;;;;;;0.30;0.30;;;;;;;;;;5026748;28;58463;-62
2023/04/25 03:00:22;;;;;;;0.38;0.32;;;;;;;;;;5026651;28;58355;-63
2023/04/25 03:02:47;;;;;;;0.40;0.40;;;;;;;;;;5024559;28;58797;-63
2023/04/25 03:05:13;;;;;;;0.30;0.30;;;;;;;;;;5028392;28;58421;-61
2023/04/25 03:07:39;;;;;;;0.47;0.33;;;;;;;;;;5032674;28;58303;-62
2023/04/25 03:10:05;;;;;;;0.20;0.17;;;;;;;;;;5029321;28;59372;-62
2023/04/25 03:12:30;;;;;;;0.30;0.30;;;;;;;;;;5024015;28;58771;-62
2023/04/25 03:14:55;;;;;;;0.40;0.40;;;;;;;;;;5027404;28;58806;-62
2023/04/25 03:17:21;;;;;;;0.68;0.35;;;;;;;;;;5027300;28;59739;-62
2023/04/25 03:19:46;;;;;;;0.47;0.32;;;;;;;;;;5028857;28;58404;-63
2023/04/25 03:22:11;;;;;;;0.32;0.32;;;;;;;;;;5009302;28;59512;-63
2023/04/25 03:24:37;;;;;;;0.30;0.30;;;;;;;;;;5015511;28;58890;-62
2023/04/25 03:27:02;;;;;;;0.40;0.30;;;;;;;;;;5023470;28;58839;-63
2023/04/25 03:29:28;;;;;;;0.52;0.40;;;;;;;;;;5027501;28;58346;-63
2023/04/25 03:31:53;;;;;;;0.40;0.30;;;;;;;;;;5023972;28;59352;-63
2023/04/25 03:34:18;;;;;;;0.30;0.30;;;;;;;;;;5027787;28;58329;-62
2023/04/25 03:36:44;;;;;;;1.40;0.20;;;;;;;;;;5027057;28;58445;-63
2023/04/25 03:39:09;;;;;;;0.77;0.60;;;;;;;;;;5026595;28;58469;-63
2023/04/25 03:41:34;;;;;;;0.10;0.10;;;;;;;;;;5027451;28;58215;-62
2023/04/25 03:43:59;;;;;;;0.53;0.10;;;;;;;;;;5028106;28;57774;-63
2023/04/25 03:46:24;;;;;;;0.40;0.40;;;;;;;;;;5025974;28;58563;-63
2023/04/25 03:48:50;;;;;;;0.13;0.10;;;;;;;;;;5027384;28;59253;-62
2023/04/25 03:51:15;;;;;;;0.43;0.30;;;;;;;;;;5024178;28;58545;-63
2023/04/25 03:53:40;;;;;;;0.40;0.30;;;;;;;;;;5025921;28;59493;-62
2023/04/25 03:56:06;;;;;;;0.30;0.30;;;;;;;;;;5026879;28;58955;-62
2023/04/25 03:58:31;;;;;;;0.65;0.63;;;;;;;;;;5025349;28;58637;-63
2023/04/25 04:00:56;;;;;;;0.35;0.30;;;;;;;;;;5027914;28;58304;-63
2023/04/25 04:03:21;;;;;;;0.30;0.30;;;;;;;;;;5024759;28;58507;-62
2023/04/25 04:05:47;;;;;;;0.63;0.50;;;;;;;;;;5026254;28;58353;-62
2023/04/25 04:08:12;;;;;;;0.60;0.55;;;;;;;;;;5028032;28;58151;-62
2023/04/25 04:10:37;;;;;;;0.20;0.20;;;;;;;;;;5023820;28;58712;-63
2023/04/25 04:13:02;;;;;;;0.93;0.63;;;;;;;;;;5025606;28;59108;-62
2023/04/25 04:15:27;;;;;;;0.37;0.30;;;;;;;;;;5028021;28;58950;-62
2023/04/25 04:17:53;;;;;;;0.50;0.40;;;;;;;;;;5026573;28;58997;-60
2023/04/25 04:20:19;;;;;;;0.47;0.40;;;;;;;;;;5027799;28;58713;-62
2023/04/25 04:22:44;;;;;;;0.85;0.43;;;;;;;;;;5023759;28;59576;-62
2023/04/25 04:25:11;;;;;;;0.68;0.30;;;;;;;;;;5026382;28;58453;-62
2023/04/25 04:27:36;;;;;;;0.88;0.60;;;;;;;;;;5024346;28;60260;-63
2023/04/25 04:30:03;;;;;;;0.15;0.15;;;;;;;;;;5023548;28;58603;-63
2023/04/25 04:32:30;;;;;;;1.55;0.30;;;;;;;;;;5026316;28;58322;-62
2023/04/25 04:34:55;;;;;;;0.30;0.30;;;;;;;;;;5027711;28;63360;-61
2023/04/25 04:37:20;;;;;;;2.25;0.40;;;;;;;;;;5026058;28;58454;-62
2023/04/25 04:39:45;;;;;;;1.00;0.40;;;;;;;;;;5024567;28;58859;-62
2023/04/25 04:42:11;;;;;;;2.15;0.50;;;;;;;;;;5025644;28;58975;-62
2023/04/25 04:44:36;;;;;;;1.35;0.70;;;;;;;;;;5021041;28;59048;-63
2023/04/25 04:47:03;;;;;;;1.37;0.73;;;;;;;;;;5028013;28;59374;-67
2023/04/25 04:49:28;;;;;;;1.85;0.88;;;;;;;;;;5024588;28;58542;-65
2023/04/25 04:51:54;;;;;;;4.67;0.70;;;;;;;;;;5023569;28;58989;-65
2023/04/25 04:54:19;;;;;;;3.10;0.60;;;;;;;;;;5025840;28;58719;-65
2023/04/25 04:56:45;;;;;;;2.63;1.25;;;;;;;;;;5023793;28;58570;-63
2023/04/25 04:59:10;;;;;;;2.43;0.70;;;;;;;;;;5026026;28;59591;-62
2023/04/25 05:01:35;;;;;;;1.60;0.80;;;;;;;;;;5022789;28;58868;-60
2023/04/25 05:04:00;;;;;;;2.03;0.50;;;;;;;;;;5023334;28;58093;-62
2023/04/25 05:06:26;;;;;;;3.92;1.40;;;;;;;;;;5025421;28;58512;-62
2023/04/25 05:08:52;;;;;;;2.40;0.90;;;;;;;;;;5024703;28;58921;-62
2023/04/25 05:11:17;;;;;;;4.78;1.27;;;;;;;;;;5024178;28;58448;-62
2023/04/25 05:13:43;;;;;;;5.50;1.17;;;;;;;;;;5024141;28;58454;-62
2023/04/25 05:16:08;;;;;;;3.07;0.97;;;;;;;;;;5025422;28;58518;-62
2023/04/25 05:18:33;;;;;;;2.72;1.45;;;;;;;;;;5023791;28;58644;-62
2023/04/25 05:20:58;;;;;;;1.13;0.60;;;;;;;;;;5025222;28;58440;-61
2023/04/25 05:23:23;;;;;;;1.20;0.60;;;;;;;;;;5027302;28;58356;-62
2023/04/25 05:25:48;;;;;;;3.08;0.75;;;;;;;;;;5028545;28;58354;-62
2023/04/25 05:28:13;;;;;;;3.67;0.80;;;;;;;;;;5026609;28;58747;-62
2023/04/25 05:30:39;;;;;;;4.20;1.13;;;;;;;;;;5026906;28;58575;-62
2023/04/25 05:33:04;;;;;;;2.47;0.75;;;;;;;;;;5027114;28;58728;-62
2023/04/25 05:35:29;;;;;;;1.20;0.73;;;;;;;;;;5026220;28;58410;-62
2023/04/25 05:37:55;;;;;;;2.90;0.93;;;;;;;;;;5027619;28;58316;-62
2023/04/25 05:40:20;;;;;;;1.60;0.70;;;;;;;;;;5027130;28;58841;-62
2023/04/25 05:42:45;;;;;;;1.80;0.63;;;;;;;;;;5025226;28;58643;-62
2023/04/25 05:45:10;;;;;;;1.27;0.80;;;;;;;;;;5027016;28;58795;-62
2023/04/25 05:47:35;;;;;;;2.10;0.77;;;;;;;;;;5025976;28;58396;-62
2023/04/25 05:50:00;;;;;;;2.10;0.50;;;;;;;;;;5028298;28;58661;-62
2023/04/25 05:52:26;;;;;;;2.57;1.20;;;;;;;;;;5028494;28;58731;-62
2023/04/25 05:54:51;;;;;;;2.23;0.40;;;;;;;;;;5044338;27;58730;-62
2023/04/25 05:57:20;;;;;;;1.13;0.30;;;;;;;;;;5028886;28;58387;-62
2023/04/25 05:59:46;;;;;;;1.67;0.52;;;;;;;;;;5028412;28;58647;-62
2023/04/25 06:02:11;;;;;;;1.60;0.52;;;;;;;;;;5030055;28;58320;-62
2023/04/25 06:04:36;;;;;;;2.22;0.77;;;;;;;;;;5028797;28;58478;-62
2023/04/25 06:07:01;;;;;;;2.65;0.60;;;;;;;;;;5029496;28;58467;-62
2023/04/25 06:09:26;;;;;;;4.20;0.45;;;;;;;;;;5028712;28;58811;-62
2023/04/25 06:11:51;;;;;;;0.98;0.50;;;;;;;;;;5028474;28;58421;-62
2023/04/25 06:14:16;;;;;;;1.38;0.52;;;;;;;;;;5027587;28;58851;-63
2023/04/25 06:16:42;;;;;;;1.13;0.90;;;;;;;;;;5030240;28;58602;-62
2023/04/25 06:19:07;;;;;;;0.60;0.40;;;;;;;;;;5028985;28;58462;-62
2023/04/25 06:21:32;;;;;;;0.50;0.30;;;;;;;;;;5029389;27;58739;-66
2023/04/25 06:23:57;;;;;;;5.38;0.73;;;;;;;;;;5029880;28;58380;-62
2023/04/25 06:26:22;;;;;;;1.03;0.40;;;;;;;;;;5030844;28;58733;-62
2023/04/25 06:28:47;;;;;;;2.10;0.77;;;;;;;;;;5027444;28;58551;-62
2023/04/25 06:31:12;;;;;;;1.92;0.50;;;;;;;;;;5029029;28;58996;-62
2023/04/25 06:33:37;;;;;;;0.55;0.40;;;;;;;;;;5029462;28;58864;-62
2023/04/25 06:36:03;;;;;;;0.65;0.50;;;;;;;;;;5028953;28;58780;-62
2023/04/25 06:38:28;;;;;;;0.93;0.93;;;;;;;;;;5030234;28;58926;-62
2023/04/25 06:40:53;;;;;;;0.73;0.30;;;;;;;;;;5027847;28;58877;-62
2023/04/25 06:43:18;;;;;;;0.50;0.40;;;;;;;;;;5028743;28;58820;-62
2023/04/25 06:45:43;;;;;;;0.97;0.50;;;;;;;;;;5028368;28;58869;-62
2023/04/25 06:48:09;;;;;;;0.82;0.40;;;;;;;;;;5028850;28;58399;-62
2023/04/25 06:50:34;;;;;;;0.40;0.38;;;;;;;;;;5028698;27;58665;-62
2023/04/25 06:53:01;;;;;;;0.45;0.32;;;;;;;;;;5028772;28;58286;-63
2023/04/25 06:55:26;;;;;;;0.43;0.43;;;;;;;;;;5026412;28;58207;-61
2023/04/25 06:57:51;;;;;;;0.50;0.40;;;;;;;;;;5026642;28;58920;-62
2023/04/25 07:00:17;;;;;;;0.45;0.40;;;;;;;;;;5029231;28;58814;-62
2023/04/25 07:02:43;;;;;;;0.85;0.50;;;;;;;;;;5029052;28;58468;-62
2023/04/25 07:05:08;;;;;;;0.30;0.30;;;;;;;;;;5028975;28;58961;-62
2023/04/25 07:07:33;;;;;;;0.73;0.20;;;;;;;;;;5028143;28;58364;-62
2023/04/25 07:09:58;;;;;;;0.90;0.47;;;;;;;;;;5026649;28;59528;-62
2023/04/25 07:12:25;;;;;;;0.30;0.30;;;;;;;;;;5021120;28;59050;-62
2023/04/25 07:14:50;;;;;;;1.23;0.75;;;;;;;;;;5011228;28;58448;-62
2023/04/25 07:17:15;;;;;;;2.75;0.47;;;;;;;;;;5028883;28;58729;-62
2023/04/25 07:19:40;;;;;;;0.20;0.20;;;;;;;;;;5023375;28;58806;-62
2023/04/25 07:22:06;;;;;;;0.83;0.80;;;;;;;;;;5028748;28;58460;-62
2023/04/25 07:24:31;;;;;;;0.60;0.28;;;;;;;;;;5028448;28;59182;-62
2023/04/25 07:26:56;;;;;;;0.30;0.30;;;;;;;;;;5027608;28;58871;-62
2023/04/25 07:29:21;;;;;;;0.50;0.30;;;;;;;;;;5028102;28;58569;-62
2023/04/25 07:31:46;;;;;;;0.40;0.13;;;;;;;;;;5028823;28;58798;-62
2023/04/25 07:34:12;;;;;;;0.47;0.43;;;;;;;;;;5029149;28;58456;-62
2023/04/25 07:36:37;;;;;;;0.40;0.20;;;;;;;;;;5028827;28;58387;-62
2023/04/25 07:39:02;;;;;;;0.50;0.20;;;;;;;;;;5028119;28;58736;-62
2023/04/25 07:41:27;;;;;;;0.57;0.57;;;;;;;;;;5027705;28;58848;-62
2023/04/25 07:43:52;;;;;;;0.63;0.20;;;;;;;;;;5028388;28;58525;-62
2023/04/25 07:46:17;;;;;;;0.30;0.05;;;;;;;;;;5026706;28;58387;-62
2023/04/25 07:48:42;;;;;;;0.43;0.30;;;;;;;;;;5028265;28;58450;-62
2023/04/25 07:51:08;;;;;;;0.20;0.20;;;;;;;;;;5027875;28;58383;-62
2023/04/25 07:53:34;;;;;;;0.40;0.35;;;;;;;;;;5027990;28;58460;-62
2023/04/25 07:55:59;;;;;;;0.25;0.20;;;;;;;;;;5029655;28;58332;-62
2023/04/25 07:58:25;;;;;;;0.40;0.20;;;;;;;;;;5028035;28;58451;-62
2023/04/25 08:00:50;;;;;;;1.00;0.20;;;;;;;;;;5026348;28;58790;-60
2023/04/25 08:03:15;;;;;;;0.57;0.30;;;;;;;;;;5028460;28;58407;-62
2023/04/25 08:05:40;;;;;;;0.10;0.10;;;;;;;;;;5027250;28;58496;-62
2023/04/25 08:08:06;;;;;;;0.87;0.50;;;;;;;;;;5028625;28;58329;-62
2023/04/25 08:10:31;;;;;;;0.50;0.40;;;;;;;;;;5026724;28;59226;-62
2023/04/25 08:12:57;;;;;;;0.57;0.10;;;;;;;;;;5026623;28;58507;-62
2023/04/25 08:15:22;;;;;;;0.45;0.20;;;;;;;;;;5029953;28;58350;-62
2023/04/25 08:17:47;;;;;;;0.20;0.20;;;;;;;;;;5027566;28;58300;-62
2023/04/25 08:20:12;;;;;;;0.57;0.50;;;;;;;;;;5027905;28;58181;-62
2023/04/25 08:22:37;;;;;;;0.87;0.20;;;;;;;;;;5027332;28;58436;-62
2023/04/25 08:25:03;;;;;;;0.60;0.30;;;;;;;;;;5026613;28;58631;-62
2023/04/25 08:27:28;;;;;;;0.30;0.30;;;;;;;;;;5028025;28;58495;-62
2023/04/25 08:29:53;;;;;;;0.20;0.20;;;;;;;;;;5028107;28;58424;-62
2023/04/25 08:32:18;;;;;;;0.10;0.10;;;;;;;;;;5027728;28;58398;-62
2023/04/25 08:34:43;;;;;;;0.10;0.10;;;;;;;;;;5025641;28;60046;-62
2023/04/25 08:37:09;;;;;;;0.10;0.10;;;;;;;;;;5007367;28;58911;-62
2023/04/25 08:39:35;;;;;;;0.30;0.10;;;;;;;;;;5012842;28;58469;-62
2023/04/25 08:42:00;;;;;;;0.10;0.10;;;;;;;;;;5027515;28;59382;-62
2023/04/25 08:44:26;;;;;;;0.30;0.13;;;;;;;;;;5026453;28;58358;-62
2023/04/25 08:46:52;;;;;;;0.00;0.00;;;;;;;;;;5028061;28;58712;-62
2023/04/25 08:49:18;;;;;;;0.00;0.00;;;;;;;;;;5027538;28;59129;-64
2023/04/25 08:51:46;;;;;;;0.40;0.35;;;;;;;;;;5026760;28;58655;-62
2023/04/25 08:54:12;;;;;;;0.38;0.22;;;;;;;;;;5026834;28;58169;-62
2023/04/25 08:56:38;;;;;;;0.35;0.30;;;;;;;;;;5027937;28;58563;-62
2023/04/25 08:59:04;;;;;;;0.70;0.20;;;;;;;;;;5026778;28;58268;-62
2023/04/25 09:01:29;;;;;;;0.32;0.30;;;;;;;;;;5026016;28;60092;-62
2023/04/25 09:03:54;;;;;;;0.20;0.20;;;;;;;;;;5027110;28;58368;-62
2023/04/25 09:06:19;;;;;;;0.20;0.20;;;;;;;;;;5026590;28;58168;-62
2023/04/25 09:08:45;;;;;;;0.47;0.28;;;;;;;;;;5027531;28;58681;-63
2023/04/25 09:11:12;;;;;;;0.50;0.20;;;;;;;;;;5027417;28;59653;-62
2023/04/25 09:13:37;;;;;;;0.35;0.22;;;;;;;;;;5027365;28;58789;-62
2023/04/25 09:16:02;;;;;;;0.15;0.15;;;;;;;;;;5027350;28;60024;-62
2023/04/25 09:18:29;;;;;;;0.50;0.10;;;;;;;;;;5025321;28;58824;-62
2023/04/25 09:21:05;;;;;;;0.43;0.20;;;;;;;;;;5027366;28;58561;-62
2023/04/25 09:23:30;;;;;;;0.35;0.20;;;;;;;;;;5025172;28;58375;-62
2023/04/25 09:25:55;;;;;;;0.23;0.20;;;;;;;;;;5024495;28;58870;-62
2023/04/25 09:28:27;;;;;;;0.20;0.20;;;;;;;;;;5026879;28;58664;-62
2023/04/25 09:30:57;;;;;;;0.10;0.10;;;;;;;;;;5026649;28;58415;-62
2023/04/25 09:33:27;;;;;;;0.30;0.15;;;;;;;;;;5026340;28;58451;-62
2023/04/25 09:35:55;;;;;;;0.30;0.20;;;;;;;;;;5024806;28;59413;-62
2023/04/25 09:38:21;;;;;;;0.20;0.10;;;;;;;;;;5025574;28;58570;-62
2023/04/25 09:40:47;;;;;;;0.10;0.10;;;;;;;;;;5026997;28;58416;-62
2023/04/25 09:43:18;;;;;;;0.10;0.00;;;;;;;;;;5025968;28;58776;-62
2023/04/25 09:45:45;;;;;;;0.38;0.10;;;;;;;;;;5026729;28;58388;-63
2023/04/25 09:48:11;;;;;;;0.22;0.13;;;;;;;;;;5026169;28;58948;-63
2023/04/25 09:50:36;;;;;;;0.40;0.25;;;;;;;;;;5023969;28;58558;-62
2023/04/25 09:53:07;;;;;;;0.68;0.25;;;;;;;;;;5027748;28;58379;-62
2023/04/25 09:55:34;;;;;;;0.10;0.10;;;;;;;;;;5026242;28;59238;-62
2023/04/25 09:58:03;;;;;;;0.20;0.10;;;;;;;;;;5024850;28;58605;-62
2023/04/25 10:00:28;;;;;;;0.15;0.10;;;;;;;;;;5026726;28;58430;-61
2023/04/25 10:02:54;;;;;;;0.10;0.10;;;;;;;;;;5024920;28;59047;-62
2023/04/25 10:05:19;;;;;;;0.40;0.10;;;;;;;;;;5026792;28;58640;-62
2023/04/25 10:07:44;;;;;;;0.10;0.10;;;;;;;;;;5026945;28;58360;-62
2023/04/25 10:10:12;;;;;;;0.10;0.10;;;;;;;;;;5026740;28;58184;-62
2023/04/25 10:12:39;;;;;;;0.33;0.10;;;;;;;;;;5026847;28;58943;-62
2023/04/25 10:15:04;;;;;;;0.25;0.25;;;;;;;;;;5026633;28;58890;-62
2023/04/25 10:17:31;;;;;;;0.20;0.20;;;;;;;;;;5024909;28;58644;-61
2023/04/25 10:19:56;;;;;;;0.10;0.10;;;;;;;;;;5024907;28;59410;-61
2023/04/25 10:22:29;;;;;;;0.20;0.20;;;;;;;;;;5026617;28;58768;-62
2023/04/25 10:24:55;;;;;;;0.10;0.00;;;;;;;;;;5025460;28;60288;-62
2023/04/25 10:27:20;;;;;;;0.30;0.20;;;;;;;;;;5026425;28;58485;-62
2023/04/25 10:29:59;;;;;;;0.40;0.30;;;;;;;;;;5026084;28;58408;-62
2023/04/25 10:32:25;;;;;;;0.22;0.22;;;;;;;;;;5025451;28;58599;-62
2023/04/25 10:34:50;;;;;;;0.40;0.10;;;;;;;;;;5025359;28;60262;-62
2023/04/25 10:37:15;;;;;;;0.20;0.10;;;;;;;;;;5027677;28;58564;-62
2023/04/25 10:39:44;;;;;;;0.10;0.00;;;;;;;;;;5029890;28;58444;-62
2023/04/25 10:42:09;;;;;;;0.95;0.10;;;;;;;;;;5028165;28;58795;-62
2023/04/25 10:44:36;;;;;;;0.20;0.20;;;;;;;;;;5029031;28;58474;-62
2023/04/25 10:47:02;;;;;;;0.00;0.00;;;;;;;;;;5030998;28;58346;-63
2023/04/25 10:49:35;;;;;;;1.13;0.45;;;;;;;;;;5029062;28;58701;-62
2023/04/25 10:52:12;;;;;;;0.20;0.10;;;;;;;;;;5028074;28;58219;-62
2023/04/25 10:54:41;;;;;;;0.10;0.10;;;;;;;;;;5027251;28;60338;-62
2023/04/25 10:57:06;;;;;;;0.13;0.10;;;;;;;;;;5027232;28;59021;-61
2023/04/25 10:59:31;;;;;;;0.10;0.10;;;;;;;;;;5030439;28;58377;-62
2023/04/25 11:01:57;;;;;;;0.00;0.00;;;;;;;;;;5028881;28;58322;-61
2023/04/25 11:04:23;;;;;;;0.65;0.17;;;;;;;;;;5028053;28;58533;-62
2023/04/25 11:07:07;;;;;;;0.20;0.13;;;;;;;;;;5029474;28;58476;-62
2023/04/25 11:09:32;;;;;;;0.28;0.10;;;;;;;;;;5028309;28;58354;-62
2023/04/25 11:11:58;;;;;;;0.30;0.30;;;;;;;;;;5029076;28;58576;-62
2023/04/25 11:14:24;;;;;;;0.22;0.10;;;;;;;;;;5029264;28;58390;-62
2023/04/25 11:16:52;;;;;;;0.22;0.10;;;;;;;;;;5027787;28;58432;-62
2023/04/25 11:19:19;;;;;;;0.20;0.20;;;;;;;;;;5027472;28;58028;-62
2023/04/25 11:21:44;;;;;;;0.10;0.08;;;;;;;;;;5027007;28;58447;-62
2023/04/25 11:24:09;;;;;;;0.20;0.20;;;;;;;;;;5027737;28;58611;-62
2023/04/25 11:26:37;;;;;;;0.50;0.30;;;;;;;;;;5029146;28;58364;-62
2023/04/25 11:29:02;;;;;;;0.32;0.32;;;;;;;;;;5029548;28;59499;-62
2023/04/25 11:31:28;;;;;;;0.43;0.15;;;;;;;;;;5028494;28;58770;-63
2023/04/25 11:33:56;;;;;;;0.10;0.10;;;;;;;;;;5026549;28;59721;-62
2023/04/25 11:36:22;;;;;;;0.32;0.30;;;;;;;;;;5028509;28;58281;-62
2023/04/25 11:38:47;;;;;;;0.22;0.22;;;;;;;;;;5026786;28;58787;-62
2023/04/25 11:41:12;;;;;;;0.07;0.00;;;;;;;;;;5029322;28;58379;-62
2023/04/25 11:43:37;;;;;;;0.10;0.10;;;;;;;;;;5025851;28;58565;-63
2023/04/25 11:46:07;;;;;;;0.20;0.07;;;;;;;;;;5028098;28;58363;-62
2023/04/25 11:48:36;;;;;;;0.03;0.03;;;;;;;;;;5027519;28;58783;-62
2023/04/25 11:51:01;;;;;;;0.05;0.05;;;;;;;;;;5023702;28;59198;-62
2023/04/25 11:53:28;;;;;;;0.20;0.10;;;;;;;;;;5029813;28;58856;-62
2023/04/25 11:55:53;;;;;;;0.52;0.13;;;;;;;;;;5028058;28;59342;-62
2023/04/25 11:58:19;;;;;;;0.10;0.10;;;;;;;;;;5027312;28;58542;-62
2023/04/25 12:00:44;;;;;;;0.00;0.00;;;;;;;;;;5028321;28;59028;-62
2023/04/25 12:03:09;;;;;;;0.10;0.10;;;;;;;;;;5024365;28;58786;-62
2023/04/25 12:05:35;;;;;;;0.10;0.10;;;;;;;;;;5024284;28;58413;-61
2023/04/25 12:08:11;;;;;;;0.30;0.20;;;;;;;;;;5024897;28;58905;-62
2023/04/25 12:10:38;;;;;;;0.20;0.03;;;;;;;;;;5024514;28;58696;-62
2023/04/25 12:13:17;;;;;;;0.28;0.10;;;;;;;;;;5025640;28;58725;-61
2023/04/25 12:15:42;;;;;;;0.10;0.10;;;;;;;;;;5025495;28;58855;-60
2023/04/25 12:18:07;;;;;;;0.10;0.00;;;;;;;;;;5028231;28;58718;-61
2023/04/25 12:20:32;;;;;;;0.13;0.03;;;;;;;;;;5026356;28;58734;-61
2023/04/25 12:22:57;;;;;;;0.07;0.07;;;;;;;;;;5027977;28;58867;-60
2023/04/25 12:25:39;;;;;;;0.13;0.08;;;;;;;;;;5028238;28;58665;-59
2023/04/25 12:28:20;;;;;;;0.40;0.20;;;;;;;;;;5027922;28;59889;-60
2023/04/25 12:30:53;;;;;;;0.40;0.10;;;;;;;;;;5027356;28;58666;-59
2023/04/25 12:33:18;;;;;;;0.10;0.10;;;;;;;;;;5025201;28;58435;-61
2023/04/25 12:35:43;;;;;;;0.27;0.13;;;;;;;;;;5026734;28;58692;-60
2023/04/25 12:38:08;;;;;;;0.20;0.20;;;;;;;;;;5028553;28;58353;-61
2023/04/25 12:40:33;;;;;;;0.10;0.10;;;;;;;;;;5026311;28;58712;-61
2023/04/25 12:42:58;;;;;;;0.10;0.10;;;;;;;;;;5026135;28;58525;-60
2023/04/25 12:45:23;;;;;;;0.10;0.10;;;;;;;;;;5027944;28;58729;-59
2023/04/25 12:47:49;;;;;;;0.22;0.17;;;;;;;;;;5027895;28;58403;-60
2023/04/25 12:50:14;;;;;;;0.35;0.20;;;;;;;;;;5026499;28;58457;-60
2023/04/25 12:52:39;;;;;;;0.47;0.13;;;;;;;;;;5026545;28;58611;-55
2023/04/25 12:55:05;;;;;;;0.10;0.10;;;;;;;;;;5025958;28;58725;-61
2023/04/25 12:57:30;;;;;;;0.13;0.00;;;;;;;;;;5026969;28;58086;-61
2023/04/25 12:59:55;;;;;;;0.60;0.35;;;;;;;;;;5026356;28;58733;-60
2023/04/25 13:02:21;;;;;;;0.10;0.10;;;;;;;;;;5026221;28;58416;-61
2023/04/25 13:04:46;;;;;;;0.15;0.10;;;;;;;;;;5026572;28;58651;-61
2023/04/25 13:07:11;;;;;;;0.57;0.27;;;;;;;;;;5027560;28;58671;-61
2023/04/25 13:09:36;;;;;;;1.90;0.13;;;;;;;;;;5022508;28;58758;-60
2023/04/25 13:12:01;;;;;;;0.17;0.10;;;;;;;;;;5024778;28;58705;-60
2023/04/25 13:14:26;;;;;;;0.10;0.10;;;;;;;;;;5026891;28;58563;-61
2023/04/25 13:16:52;;;;;;;0.10;0.10;;;;;;;;;;5026391;28;58672;-61
2023/04/25 13:19:17;;;;;;;0.43;0.30;;;;;;;;;;5026482;28;58836;-61
2023/04/25 13:21:42;;;;;;;0.00;0.00;;;;;;;;;;5026616;28;58610;-60
2023/04/25 13:24:07;;;;;;;0.13;0.10;;;;;;;;;;5025947;28;58741;-61
2023/04/25 13:26:32;;;;;;;0.20;0.20;;;;;;;;;;5027910;28;58685;-61
2023/04/25 13:28:57;;;;;;;0.20;0.10;;;;;;;;;;5027033;28;58366;-61
2023/04/25 13:31:22;;;;;;;0.40;0.40;;;;;;;;;;5026968;28;58473;-60
2023/04/25 13:33:48;;;;;;;0.10;0.10;;;;;;;;;;5026761;28;58423;-61
2023/04/25 13:36:13;;;;;;;0.10;0.10;;;;;;;;;;5026100;28;58801;-61
2023/04/25 13:38:39;;;;;;;0.10;0.10;;;;;;;;;;5026808;28;58254;-60
2023/04/25 13:41:06;;;;;;;0.45;0.43;;;;;;;;;;5027911;28;59006;-61
2023/04/25 13:43:31;;;;;;;0.10;0.10;;;;;;;;;;5025295;28;58597;-61
2023/04/25 13:45:57;;;;;;;0.30;0.10;;;;;;;;;;5026448;28;59171;-60
2023/04/25 13:48:23;;;;;;;0.05;0.05;;;;;;;;;;5026451;28;58289;-61
2023/04/25 13:50:48;;;;;;;0.15;0.10;;;;;;;;;;5025087;28;58438;-61
2023/04/25 13:53:13;;;;;;;0.17;0.10;;;;;;;;;;5028082;28;58443;-60
2023/04/25 13:55:38;;;;;;;0.20;0.20;;;;;;;;;;5026421;28;58431;-61
2023/04/25 13:58:07;;;;;;;0.27;0.27;;;;;;;;;;5025925;28;58884;-61
2023/04/25 14:00:32;;;;;;;0.10;0.10;;;;;;;;;;5026719;28;60030;-60
2023/04/25 14:02:58;;;;;;;0.20;0.03;;;;;;;;;;5027346;28;58733;-60
2023/04/25 14:05:23;;;;;;;0.27;0.10;;;;;;;;;;5026767;28;59117;-61
2023/04/25 14:07:48;;;;;;;0.10;0.00;;;;;;;;;;5025861;28;59541;-61
2023/04/25 14:10:13;;;;;;;0.47;0.00;;;;;;;;;;5026090;28;58515;-60
2023/04/25 14:12:38;;;;;;;0.30;0.08;;;;;;;;;;5029007;28;58806;-61
2023/04/25 14:15:04;;;;;;;0.28;0.28;;;;;;;;;;5029091;28;58410;-60
2023/04/25 14:17:29;;;;;;;0.15;0.08;;;;;;;;;;5029340;28;58281;-61
2023/04/25 14:19:54;;;;;;;0.30;0.10;;;;;;;;;;5028499;28;58288;-60
2023/04/25 14:22:19;;;;;;;0.30;0.10;;;;;;;;;;5029668;28;58553;-61
2023/04/25 14:24:45;;;;;;;0.47;0.10;;;;;;;;;;5029603;28;58384;-60
2023/04/25 14:27:10;;;;;;;0.30;0.20;;;;;;;;;;5027930;28;58663;-61
2023/04/25 14:29:35;;;;;;;0.03;0.03;;;;;;;;;;5030257;28;58688;-61
2023/04/25 14:32:00;;;;;;;0.00;0.00;;;;;;;;;;5029235;28;58642;-61
2023/04/25 14:34:25;;;;;;;0.10;0.00;;;;;;;;;;5029588;28;58791;-60